createdAt,value
2022-10-25T00:04:08.887Z,1.60
2022-10-25T00:09:12.662Z,1.63
2022-10-25T00:14:19.175Z,1.40
2022-10-25T00:19:24.201Z,1.33
2022-10-25T00:24:27.992Z,1.10
2022-10-25T00:29:32.176Z,1.35
2022-10-25T00:34:37.167Z,1.48
2022-10-25T00:39:41.223Z,1.00
2022-10-25T00:44:51.645Z,1.10
2022-10-25T00:50:01.986Z,0.88
2022-10-25T00:55:07.506Z,0.98
2022-10-25T01:00:12.202Z,1.20
2022-10-25T01:05:18.960Z,1.30
2022-10-25T01:10:22.621Z,1.00
2022-10-25T01:15:30.506Z,1.10
2022-10-25T01:20:56.718Z,0.98
2022-10-25T01:26:25.706Z,0.80
2022-10-25T01:31:37.623Z,1.17
2022-10-25T01:36:50.386Z,1.05
2022-10-25T01:42:02.174Z,1.38
2022-10-25T01:47:13.628Z,1.10
2022-10-25T01:52:20.964Z,0.65
2022-10-25T01:57:46.216Z,1.00
2022-10-25T02:03:11.048Z,0.77
2022-10-25T02:08:22.277Z,1.40
2022-10-25T02:13:33.149Z,0.90
2022-10-25T02:18:42.602Z,1.02
2022-10-25T02:23:48.028Z,1.00
2022-10-25T02:28:52.663Z,0.90
2022-10-25T02:33:57.728Z,0.93
2022-10-25T02:39:01.762Z,1.00
2022-10-25T02:44:05.641Z,0.90
2022-10-25T02:49:10.705Z,0.90
2022-10-25T02:54:14.299Z,1.10
2022-10-25T02:59:17.944Z,1.17
2022-10-25T03:04:23.013Z,0.90
2022-10-25T03:09:26.710Z,0.82
2022-10-25T03:14:30.301Z,1.52
2022-10-25T03:19:35.419Z,1.15
2022-10-25T03:24:39.119Z,1.02
2022-10-25T03:29:42.720Z,1.05
2022-10-25T03:34:47.719Z,0.93
2022-10-25T03:39:51.336Z,1.25
2022-10-25T03:44:55.057Z,1.00
2022-10-25T03:50:00.100Z,1.15
2022-10-25T03:55:03.872Z,1.10
2022-10-25T04:00:08.494Z,0.98
2022-10-25T04:05:19.329Z,1.00
2022-10-25T04:10:25.123Z,0.73
2022-10-25T04:15:29.548Z,0.90
2022-10-25T04:20:34.587Z,0.88
2022-10-25T04:25:38.237Z,0.93
2022-10-25T04:30:42.048Z,1.27
2022-10-25T04:35:55.322Z,1.23
2022-10-25T04:41:00.455Z,1.05
2022-10-25T04:46:04.717Z,1.52
2022-10-25T04:51:10.867Z,1.50
2022-10-25T04:56:15.018Z,1.20
2022-10-25T05:01:19.763Z,1.30
2022-10-25T05:06:27.604Z,1.38
2022-10-25T05:11:31.290Z,1.10
2022-10-25T05:16:35.423Z,1.10
2022-10-25T05:21:40.436Z,0.95
2022-10-25T05:26:44.077Z,1.25
2022-10-25T05:31:47.790Z,1.50
2022-10-25T05:36:53.066Z,1.63
2022-10-25T05:41:56.716Z,1.00
2022-10-25T05:47:00.344Z,1.17
2022-10-25T05:52:05.437Z,1.63
2022-10-25T05:57:09.158Z,1.10
2022-10-25T06:02:12.890Z,1.55
2022-10-25T06:07:17.905Z,1.52
2022-10-25T06:12:21.552Z,1.63
2022-10-25T06:17:25.187Z,2.20
2022-10-25T06:22:30.161Z,2.10
2022-10-25T06:27:33.807Z,2.80
2022-10-25T06:32:38.164Z,2.83
2022-10-25T06:37:43.269Z,3.25
2022-10-25T06:42:47.221Z,3.20
2022-10-25T06:47:51.204Z,3.05
2022-10-25T06:52:56.225Z,3.58
2022-10-25T06:57:59.921Z,3.45
2022-10-25T07:03:03.539Z,4.40
2022-10-25T07:08:08.566Z,4.35
2022-10-25T07:13:12.148Z,4.15
2022-10-25T07:18:15.778Z,4.45
2022-10-25T07:23:20.740Z,4.28
2022-10-25T07:28:24.566Z,4.80
2022-10-25T07:33:28.182Z,4.55
2022-10-25T07:38:33.166Z,4.57
2022-10-25T07:43:38.520Z,4.85
2022-10-25T07:48:42.298Z,5.70
2022-10-25T07:53:47.542Z,5.03
2022-10-25T07:58:52.000Z,5.05
2022-10-25T08:03:56.848Z,5.20
2022-10-25T08:09:09.780Z,5.07
2022-10-25T08:14:24.118Z,5.53
2022-10-25T08:19:27.795Z,5.15
2022-10-25T08:24:35.274Z,5.35
2022-10-25T08:29:38.932Z,5.38
2022-10-25T08:34:42.576Z,5.88
2022-10-25T08:39:49.970Z,5.55
2022-10-25T08:45:01.542Z,5.43
2022-10-25T08:50:12.087Z,5.03
2022-10-25T08:55:20.644Z,4.70
2022-10-25T09:00:25.520Z,4.90
2022-10-25T09:05:39.264Z,4.30
2022-10-25T09:10:51.768Z,4.57
2022-10-25T09:16:06.081Z,3.90
2022-10-25T09:21:22.171Z,3.97
2022-10-25T09:26:41.228Z,3.70
2022-10-25T09:31:49.204Z,3.65
2022-10-25T09:36:58.329Z,3.40
2022-10-25T09:42:04.834Z,3.08
2022-10-25T09:47:17.757Z,3.03
2022-10-25T09:52:29.103Z,2.97
2022-10-25T09:57:34.599Z,2.00
2022-10-25T10:02:40.243Z,2.40
2022-10-25T10:07:45.890Z,2.42
2022-10-25T10:12:56.569Z,2.08
2022-10-25T10:18:23.099Z,2.00
2022-10-25T10:23:27.410Z,2.88
2022-10-25T10:28:32.824Z,2.72
2022-10-25T10:33:38.498Z,3.08
2022-10-25T10:38:42.273Z,2.92
2022-10-25T10:43:47.346Z,2.13
2022-10-25T10:48:56.814Z,2.30
2022-10-25T10:54:13.301Z,2.60
2022-10-25T10:59:30.820Z,2.45
2022-10-25T11:04:48.519Z,2.22
2022-10-25T11:09:52.193Z,2.22
2022-10-25T11:14:59.996Z,2.75
2022-10-25T11:20:22.824Z,2.70
2022-10-25T11:25:38.571Z,2.70
2022-10-25T11:30:49.495Z,2.47
2022-10-25T11:36:12.786Z,3.00
2022-10-25T11:41:30.441Z,2.45
2022-10-25T11:46:48.732Z,2.67
2022-10-25T11:52:05.705Z,3.65
2022-10-25T11:57:18.153Z,3.65
2022-10-25T12:02:50.883Z,3.40
2022-10-25T12:08:04.124Z,2.78
2022-10-25T12:13:15.798Z,2.63
2022-10-25T12:18:26.457Z,1.88
2022-10-25T12:23:32.779Z,2.10
2022-10-25T12:28:44.622Z,1.33
2022-10-25T12:33:54.955Z,1.92
2022-10-25T12:39:01.204Z,1.25
2022-10-25T12:44:21.413Z,1.10
2022-10-25T12:49:58.310Z,0.82
2022-10-25T12:55:24.325Z,1.20
2022-10-25T13:00:33.344Z,1.30
2022-10-25T13:06:25.838Z,1.40
2022-10-25T13:11:37.249Z,1.40
2022-10-25T13:16:41.081Z,1.17
2022-10-25T13:22:14.056Z,1.50
2022-10-25T13:27:25.604Z,1.02
2022-10-25T13:32:30.510Z,0.90
2022-10-25T13:37:45.576Z,0.73
2022-10-25T13:43:01.035Z,1.35
2022-10-25T13:48:26.297Z,0.80
2022-10-25T13:53:44.291Z,0.95
2022-10-25T13:58:50.958Z,0.60
2022-10-25T14:04:06.080Z,1.07
2022-10-25T14:09:26.751Z,0.63
2022-10-25T14:14:36.130Z,0.70
2022-10-25T14:19:43.560Z,0.52
2022-10-25T14:24:51.517Z,0.60
2022-10-25T14:30:13.884Z,0.60
2022-10-25T14:35:18.016Z,0.70
2022-10-25T14:40:29.028Z,0.70
2022-10-25T14:45:34.482Z,0.40
2022-10-25T14:50:40.023Z,0.52
2022-10-25T14:55:53.047Z,0.47
2022-10-25T15:01:04.940Z,0.60
2022-10-25T15:06:09.100Z,0.80
2022-10-25T15:11:17.904Z,0.52
2022-10-25T15:16:30.613Z,0.45
2022-10-25T15:21:41.161Z,0.60
2022-10-25T15:26:57.669Z,0.73
2022-10-25T15:32:05.556Z,0.40
2022-10-25T15:37:12.515Z,0.50
2022-10-25T15:47:33.037Z,1.00
2022-10-25T15:52:36.795Z,0.85
2022-10-25T15:57:40.920Z,0.98
2022-10-25T16:02:47.252Z,1.10
2022-10-25T16:07:52.152Z,0.82
2022-10-25T16:12:59.609Z,1.17
2022-10-25T16:18:05.109Z,1.27
2022-10-25T16:23:08.810Z,1.10
2022-10-25T16:28:15.304Z,1.02
2022-10-25T16:33:20.393Z,1.20
2022-10-25T16:38:24.038Z,1.00
2022-10-25T16:43:27.696Z,1.23
2022-10-25T16:48:32.659Z,1.70
2022-10-25T16:53:36.304Z,1.33
2022-10-25T16:58:40.074Z,1.67
2022-10-25T17:03:45.116Z,1.83
2022-10-25T17:08:49.271Z,2.22
2022-10-25T17:13:52.934Z,1.88
2022-10-25T17:18:57.978Z,2.25
2022-10-25T17:24:01.692Z,2.67
2022-10-25T17:29:05.652Z,3.30
2022-10-25T17:34:10.974Z,4.60
2022-10-25T17:39:16.822Z,3.75
2022-10-25T17:44:20.544Z,3.95
2022-10-25T17:49:25.553Z,3.08
2022-10-25T17:54:29.163Z,2.63
2022-10-25T17:59:33.151Z,1.63
2022-10-25T18:04:53.646Z,1.73
2022-10-25T18:10:01.931Z,1.90
2022-10-25T18:15:06.155Z,2.10
2022-10-25T18:20:12.107Z,2.15
2022-10-25T18:25:16.103Z,1.95
2022-10-25T18:30:20.083Z,1.95
2022-10-25T18:35:25.333Z,2.30
2022-10-25T18:40:29.060Z,2.00
2022-10-25T18:45:36.062Z,2.55
2022-10-25T18:55:46.560Z,2.95
2022-10-25T19:00:50.487Z,2.42
2022-10-25T19:05:55.586Z,2.40
2022-10-25T19:11:03.138Z,2.33
2022-10-25T19:16:07.669Z,1.80
2022-10-25T19:21:16.712Z,1.98
2022-10-25T19:26:21.611Z,1.80
2022-10-25T19:31:25.415Z,2.30
2022-10-25T19:36:30.610Z,1.63
2022-10-25T19:41:34.273Z,1.67
2022-10-25T19:46:37.864Z,1.92
2022-10-25T19:51:42.866Z,1.90
2022-10-25T19:56:47.311Z,2.15
2022-10-25T20:01:51.078Z,1.65
2022-10-25T20:06:56.279Z,1.98
2022-10-25T20:11:59.988Z,1.60
2022-10-25T20:17:03.638Z,2.45
2022-10-25T20:22:08.841Z,2.00
2022-10-25T20:27:12.516Z,2.10
2022-10-25T20:32:16.133Z,2.13
2022-10-25T20:37:21.134Z,2.42
2022-10-25T20:42:24.901Z,2.13
2022-10-25T20:47:28.762Z,1.83
2022-10-25T20:52:34.762Z,2.28
2022-10-25T20:57:38.470Z,2.10
2022-10-25T21:02:42.192Z,2.30
2022-10-25T21:07:47.587Z,2.38
2022-10-25T21:12:51.436Z,2.13
2022-10-25T21:17:55.210Z,2.30
2022-10-25T21:23:00.237Z,2.65
2022-10-25T21:28:52.420Z,2.58
2022-10-25T21:40:31.465Z,2.60
2022-10-25T21:46:36.500Z,2.50
2022-10-25T21:52:20.096Z,2.63
2022-10-25T21:57:39.564Z,3.10
2022-10-25T22:03:17.596Z,2.55
2022-10-25T22:08:45.046Z,2.55
2022-10-25T22:13:54.563Z,2.90
2022-10-25T22:19:00.113Z,2.47
2022-10-25T22:24:04.070Z,2.38
2022-10-25T22:29:11.630Z,2.28
2022-10-25T22:34:15.319Z,2.40
2022-10-25T22:39:18.959Z,2.90
2022-10-25T22:44:23.975Z,2.75
2022-10-25T22:49:27.615Z,2.75
2022-10-25T22:54:31.266Z,3.10
2022-10-25T22:59:36.324Z,2.45
2022-10-25T23:04:40.021Z,2.40
2022-10-25T23:09:43.654Z,2.30
2022-10-25T23:14:48.716Z,2.55
2022-10-25T23:19:52.435Z,2.50
2022-10-25T23:24:56.025Z,2.88
2022-10-25T23:30:01.128Z,2.83
2022-10-25T23:35:05.203Z,2.80
2022-10-25T23:40:09.849Z,2.78
2022-10-25T23:45:14.904Z,3.45
2022-10-25T23:50:18.519Z,2.90
2022-10-25T23:55:22.103Z,2.78
